sensor_id;sensor_type;location;lat;lon;timestamp;P1;durP1;ratioP1;P2;durP2;ratioP2
12836;SDS011;6485;51.472;5.268;2022-08-19T00:01:25;22.30;;;15.70;;
12836;SDS011;6485;51.472;5.268;2022-08-19T00:03:56;20.23;;;14.63;;
12836;SDS011;6485;51.472;5.268;2022-08-19T00:06:25;21.90;;;15.23;;
12836;SDS011;6485;51.472;5.268;2022-08-19T00:08:54;19.20;;;14.13;;
12836;SDS011;6485;51.472;5.268;2022-08-19T00:11:22;23.53;;;15.30;;
12836;SDS011;6485;51.472;5.268;2022-08-19T00:13:53;22.73;;;15.40;;
12836;SDS011;6485;51.472;5.268;2022-08-19T00:16:23;21.40;;;15.80;;
12836;SDS011;6485;51.472;5.268;2022-08-19T00:18:52;23.47;;;16.03;;
12836;SDS011;6485;51.472;5.268;2022-08-19T00:21:21;22.47;;;15.67;;
12836;SDS011;6485;51.472;5.268;2022-08-19T00:23:50;23.97;;;15.57;;
12836;SDS011;6485;51.472;5.268;2022-08-19T00:26:18;23.87;;;15.93;;
12836;SDS011;6485;51.472;5.268;2022-08-19T00:28:47;23.67;;;16.97;;
12836;SDS011;6485;51.472;5.268;2022-08-19T00:31:16;26.23;;;17.53;;
12836;SDS011;6485;51.472;5.268;2022-08-19T00:33:44;26.07;;;16.93;;
12836;SDS011;6485;51.472;5.268;2022-08-19T00:36:14;24.07;;;16.87;;
12836;SDS011;6485;51.472;5.268;2022-08-19T00:38:42;25.87;;;16.83;;
12836;SDS011;6485;51.472;5.268;2022-08-19T00:41:12;21.43;;;15.70;;
12836;SDS011;6485;51.472;5.268;2022-08-19T00:43:41;28.97;;;17.07;;
12836;SDS011;6485;51.472;5.268;2022-08-19T00:46:10;24.30;;;16.43;;
12836;SDS011;6485;51.472;5.268;2022-08-19T00:48:40;25.83;;;16.87;;
12836;SDS011;6485;51.472;5.268;2022-08-19T00:51:08;24.83;;;16.93;;
12836;SDS011;6485;51.472;5.268;2022-08-19T00:53:36;25.17;;;17.13;;
12836;SDS011;6485;51.472;5.268;2022-08-19T00:56:05;26.07;;;17.17;;
12836;SDS011;6485;51.472;5.268;2022-08-19T00:58:34;24.87;;;17.13;;
12836;SDS011;6485;51.472;5.268;2022-08-19T01:01:03;27.27;;;17.67;;
12836;SDS011;6485;51.472;5.268;2022-08-19T01:03:34;24.70;;;17.23;;
12836;SDS011;6485;51.472;5.268;2022-08-19T01:06:23;27.13;;;17.50;;
12836;SDS011;6485;51.472;5.268;2022-08-19T01:08:52;26.97;;;17.17;;
12836;SDS011;6485;51.472;5.268;2022-08-19T01:11:21;27.97;;;17.37;;
12836;SDS011;6485;51.472;5.268;2022-08-19T01:13:49;27.10;;;17.63;;
12836;SDS011;6485;51.472;5.268;2022-08-19T01:16:20;30.27;;;18.37;;
12836;SDS011;6485;51.472;5.268;2022-08-19T01:18:51;29.40;;;17.50;;
12836;SDS011;6485;51.472;5.268;2022-08-19T01:21:22;29.07;;;17.93;;
12836;SDS011;6485;51.472;5.268;2022-08-19T01:23:57;28.30;;;18.70;;
12836;SDS011;6485;51.472;5.268;2022-08-19T01:26:26;31.20;;;18.70;;
12836;SDS011;6485;51.472;5.268;2022-08-19T01:28:57;30.03;;;18.47;;
12836;SDS011;6485;51.472;5.268;2022-08-19T01:31:30;30.10;;;18.83;;
12836;SDS011;6485;51.472;5.268;2022-08-19T01:33:59;32.20;;;19.43;;
12836;SDS011;6485;51.472;5.268;2022-08-19T01:36:29;27.47;;;19.13;;
12836;SDS011;6485;51.472;5.268;2022-08-19T01:39:00;28.67;;;19.07;;
12836;SDS011;6485;51.472;5.268;2022-08-19T01:41:29;30.30;;;19.40;;
12836;SDS011;6485;51.472;5.268;2022-08-19T01:43:58;33.13;;;19.77;;
12836;SDS011;6485;51.472;5.268;2022-08-19T01:46:43;30.57;;;19.97;;
12836;SDS011;6485;51.472;5.268;2022-08-19T01:49:11;31.23;;;20.13;;
12836;SDS011;6485;51.472;5.268;2022-08-19T01:51:40;31.33;;;20.47;;
12836;SDS011;6485;51.472;5.268;2022-08-19T01:54:09;30.33;;;19.97;;
12836;SDS011;6485;51.472;5.268;2022-08-19T01:56:48;30.90;;;20.30;;
12836;SDS011;6485;51.472;5.268;2022-08-19T01:59:18;31.60;;;21.10;;
12836;SDS011;6485;51.472;5.268;2022-08-19T02:01:49;31.43;;;19.83;;
12836;SDS011;6485;51.472;5.268;2022-08-19T02:04:17;31.87;;;19.80;;
12836;SDS011;6485;51.472;5.268;2022-08-19T02:06:45;31.63;;;20.40;;
12836;SDS011;6485;51.472;5.268;2022-08-19T02:09:15;32.50;;;20.23;;
12836;SDS011;6485;51.472;5.268;2022-08-19T02:11:44;29.77;;;20.10;;
12836;SDS011;6485;51.472;5.268;2022-08-19T02:14:12;34.23;;;20.23;;
12836;SDS011;6485;51.472;5.268;2022-08-19T02:16:40;32.23;;;20.30;;
12836;SDS011;6485;51.472;5.268;2022-08-19T02:19:08;35.23;;;21.23;;
12836;SDS011;6485;51.472;5.268;2022-08-19T02:21:36;30.33;;;20.67;;
12836;SDS011;6485;51.472;5.268;2022-08-19T02:24:05;32.80;;;20.00;;
12836;SDS011;6485;51.472;5.268;2022-08-19T02:26:34;30.20;;;20.23;;
12836;SDS011;6485;51.472;5.268;2022-08-19T02:29:03;30.60;;;20.03;;
12836;SDS011;6485;51.472;5.268;2022-08-19T02:31:31;36.03;;;20.87;;
12836;SDS011;6485;51.472;5.268;2022-08-19T02:33:59;30.13;;;20.53;;
12836;SDS011;6485;51.472;5.268;2022-08-19T02:36:28;32.40;;;22.03;;
12836;SDS011;6485;51.472;5.268;2022-08-19T02:38:57;32.27;;;20.17;;
12836;SDS011;6485;51.472;5.268;2022-08-19T02:41:25;39.60;;;21.37;;
12836;SDS011;6485;51.472;5.268;2022-08-19T02:43:56;31.83;;;21.30;;
12836;SDS011;6485;51.472;5.268;2022-08-19T02:46:47;30.63;;;20.40;;
12836;SDS011;6485;51.472;5.268;2022-08-19T02:49:17;44.27;;;22.83;;
12836;SDS011;6485;51.472;5.268;2022-08-19T02:51:46;35.97;;;20.80;;
12836;SDS011;6485;51.472;5.268;2022-08-19T02:54:14;37.77;;;22.07;;
12836;SDS011;6485;51.472;5.268;2022-08-19T02:56:43;36.07;;;21.93;;
12836;SDS011;6485;51.472;5.268;2022-08-19T02:59:13;36.10;;;22.13;;
12836;SDS011;6485;51.472;5.268;2022-08-19T03:01:41;35.83;;;22.90;;
12836;SDS011;6485;51.472;5.268;2022-08-19T03:04:10;37.67;;;22.53;;
12836;SDS011;6485;51.472;5.268;2022-08-19T03:06:41;35.20;;;22.57;;
12836;SDS011;6485;51.472;5.268;2022-08-19T03:09:11;32.60;;;21.37;;
12836;SDS011;6485;51.472;5.268;2022-08-19T03:11:40;38.67;;;22.90;;
12836;SDS011;6485;51.472;5.268;2022-08-19T03:14:08;33.30;;;21.53;;
12836;SDS011;6485;51.472;5.268;2022-08-19T03:16:41;35.80;;;22.70;;
12836;SDS011;6485;51.472;5.268;2022-08-19T03:19:13;35.53;;;22.07;;
12836;SDS011;6485;51.472;5.268;2022-08-19T03:21:43;34.90;;;21.67;;
12836;SDS011;6485;51.472;5.268;2022-08-19T03:24:13;35.53;;;22.47;;
12836;SDS011;6485;51.472;5.268;2022-08-19T03:26:43;35.00;;;22.23;;
12836;SDS011;6485;51.472;5.268;2022-08-19T03:29:14;35.63;;;22.83;;
12836;SDS011;6485;51.472;5.268;2022-08-19T03:31:57;35.77;;;21.93;;
12836;SDS011;6485;51.472;5.268;2022-08-19T03:34:30;35.43;;;22.87;;
12836;SDS011;6485;51.472;5.268;2022-08-19T03:37:03;39.40;;;22.63;;
12836;SDS011;6485;51.472;5.268;2022-08-19T03:39:35;36.07;;;22.43;;
12836;SDS011;6485;51.472;5.268;2022-08-19T03:42:05;36.27;;;22.73;;
12836;SDS011;6485;51.472;5.268;2022-08-19T03:44:53;36.03;;;22.27;;
12836;SDS011;6485;51.472;5.268;2022-08-19T03:47:22;37.67;;;23.27;;
12836;SDS011;6485;51.472;5.268;2022-08-19T03:49:51;36.10;;;22.47;;
12836;SDS011;6485;51.472;5.268;2022-08-19T03:52:19;35.63;;;22.30;;
12836;SDS011;6485;51.472;5.268;2022-08-19T03:54:48;36.83;;;22.83;;
12836;SDS011;6485;51.472;5.268;2022-08-19T03:57:16;39.97;;;24.20;;
12836;SDS011;6485;51.472;5.268;2022-08-19T03:59:44;39.73;;;23.27;;
12836;SDS011;6485;51.472;5.268;2022-08-19T04:02:12;42.00;;;24.17;;
12836;SDS011;6485;51.472;5.268;2022-08-19T04:04:42;39.30;;;22.87;;
12836;SDS011;6485;51.472;5.268;2022-08-19T04:07:12;40.37;;;23.80;;
12836;SDS011;6485;51.472;5.268;2022-08-19T04:09:42;38.37;;;23.37;;
12836;SDS011;6485;51.472;5.268;2022-08-19T04:12:11;39.50;;;23.27;;
12836;SDS011;6485;51.472;5.268;2022-08-19T04:14:39;36.33;;;22.57;;
12836;SDS011;6485;51.472;5.268;2022-08-19T04:17:08;36.10;;;23.10;;
12836;SDS011;6485;51.472;5.268;2022-08-19T04:19:36;37.50;;;22.77;;
12836;SDS011;6485;51.472;5.268;2022-08-19T04:22:06;40.93;;;22.33;;
12836;SDS011;6485;51.472;5.268;2022-08-19T04:24:34;37.47;;;22.43;;
12836;SDS011;6485;51.472;5.268;2022-08-19T04:27:03;37.50;;;22.53;;
12836;SDS011;6485;51.472;5.268;2022-08-19T04:29:32;46.03;;;23.77;;
12836;SDS011;6485;51.472;5.268;2022-08-19T04:32:01;38.57;;;23.17;;
12836;SDS011;6485;51.472;5.268;2022-08-19T04:34:35;41.67;;;23.47;;
12836;SDS011;6485;51.472;5.268;2022-08-19T04:37:26;39.00;;;22.70;;
12836;SDS011;6485;51.472;5.268;2022-08-19T04:40:01;38.77;;;22.17;;
12836;SDS011;6485;51.472;5.268;2022-08-19T04:42:49;42.43;;;23.17;;
12836;SDS011;6485;51.472;5.268;2022-08-19T04:45:17;42.63;;;23.87;;
12836;SDS011;6485;51.472;5.268;2022-08-19T04:47:48;47.53;;;25.40;;
12836;SDS011;6485;51.472;5.268;2022-08-19T04:50:24;45.77;;;25.57;;
12836;SDS011;6485;51.472;5.268;2022-08-19T04:52:55;47.83;;;25.17;;
12836;SDS011;6485;51.472;5.268;2022-08-19T04:55:23;49.23;;;25.43;;
12836;SDS011;6485;51.472;5.268;2022-08-19T04:57:52;46.23;;;25.80;;
12836;SDS011;6485;51.472;5.268;2022-08-19T05:00:21;52.10;;;25.07;;
12836;SDS011;6485;51.472;5.268;2022-08-19T05:02:49;48.13;;;26.03;;
12836;SDS011;6485;51.472;5.268;2022-08-19T05:05:18;49.37;;;25.30;;
12836;SDS011;6485;51.472;5.268;2022-08-19T05:07:47;49.37;;;25.90;;
12836;SDS011;6485;51.472;5.268;2022-08-19T05:10:16;51.07;;;25.77;;
12836;SDS011;6485;51.472;5.268;2022-08-19T05:12:45;50.53;;;26.23;;
12836;SDS011;6485;51.472;5.268;2022-08-19T05:15:13;50.93;;;26.60;;
12836;SDS011;6485;51.472;5.268;2022-08-19T05:17:42;55.83;;;26.73;;
12836;SDS011;6485;51.472;5.268;2022-08-19T05:20:30;50.07;;;26.83;;
12836;SDS011;6485;51.472;5.268;2022-08-19T05:23:16;53.63;;;27.10;;
12836;SDS011;6485;51.472;5.268;2022-08-19T05:25:49;57.57;;;28.83;;
12836;SDS011;6485;51.472;5.268;2022-08-19T05:28:18;54.57;;;28.53;;
12836;SDS011;6485;51.472;5.268;2022-08-19T05:30:47;60.07;;;28.07;;
12836;SDS011;6485;51.472;5.268;2022-08-19T05:33:17;53.97;;;27.07;;
12836;SDS011;6485;51.472;5.268;2022-08-19T05:35:45;52.87;;;26.73;;
12836;SDS011;6485;51.472;5.268;2022-08-19T05:38:15;58.47;;;27.23;;
12836;SDS011;6485;51.472;5.268;2022-08-19T05:40:43;54.00;;;27.07;;
12836;SDS011;6485;51.472;5.268;2022-08-19T05:43:17;60.97;;;27.90;;
12836;SDS011;6485;51.472;5.268;2022-08-19T05:45:45;51.57;;;25.83;;
12836;SDS011;6485;51.472;5.268;2022-08-19T05:48:13;53.20;;;26.93;;
12836;SDS011;6485;51.472;5.268;2022-08-19T05:50:47;57.23;;;26.40;;
12836;SDS011;6485;51.472;5.268;2022-08-19T05:53:16;51.87;;;26.13;;
12836;SDS011;6485;51.472;5.268;2022-08-19T05:55:45;49.90;;;24.70;;
12836;SDS011;6485;51.472;5.268;2022-08-19T05:58:13;60.77;;;25.60;;
12836;SDS011;6485;51.472;5.268;2022-08-19T06:00:43;54.83;;;25.97;;
12836;SDS011;6485;51.472;5.268;2022-08-19T06:03:12;51.37;;;26.00;;
12836;SDS011;6485;51.472;5.268;2022-08-19T06:05:42;52.40;;;24.50;;
12836;SDS011;6485;51.472;5.268;2022-08-19T06:08:17;50.03;;;24.77;;
12836;SDS011;6485;51.472;5.268;2022-08-19T06:11:11;60.83;;;26.03;;
12836;SDS011;6485;51.472;5.268;2022-08-19T06:13:45;52.27;;;24.37;;
12836;SDS011;6485;51.472;5.268;2022-08-19T06:16:27;47.67;;;24.20;;
12836;SDS011;6485;51.472;5.268;2022-08-19T06:18:59;49.20;;;25.17;;
12836;SDS011;6485;51.472;5.268;2022-08-19T06:21:31;46.37;;;23.20;;
12836;SDS011;6485;51.472;5.268;2022-08-19T06:24:00;52.07;;;25.47;;
12836;SDS011;6485;51.472;5.268;2022-08-19T06:26:30;52.27;;;24.60;;
12836;SDS011;6485;51.472;5.268;2022-08-19T06:28:59;48.33;;;23.33;;
12836;SDS011;6485;51.472;5.268;2022-08-19T06:31:29;47.10;;;24.20;;
12836;SDS011;6485;51.472;5.268;2022-08-19T06:33:59;48.73;;;24.07;;
12836;SDS011;6485;51.472;5.268;2022-08-19T06:36:30;49.03;;;22.77;;
12836;SDS011;6485;51.472;5.268;2022-08-19T06:39:00;48.00;;;23.00;;
12836;SDS011;6485;51.472;5.268;2022-08-19T06:41:29;48.13;;;23.40;;
12836;SDS011;6485;51.472;5.268;2022-08-19T06:43:58;49.83;;;22.43;;
12836;SDS011;6485;51.472;5.268;2022-08-19T06:46:29;42.87;;;22.60;;
12836;SDS011;6485;51.472;5.268;2022-08-19T06:49:00;42.53;;;22.53;;
12836;SDS011;6485;51.472;5.268;2022-08-19T06:51:30;45.77;;;21.90;;
12836;SDS011;6485;51.472;5.268;2022-08-19T06:53:59;42.30;;;21.23;;
12836;SDS011;6485;51.472;5.268;2022-08-19T06:56:29;40.60;;;21.20;;
12836;SDS011;6485;51.472;5.268;2022-08-19T06:59:01;42.87;;;21.47;;
12836;SDS011;6485;51.472;5.268;2022-08-19T07:04:10;48.13;;;21.37;;
12836;SDS011;6485;51.472;5.268;2022-08-19T07:06:40;44.47;;;22.37;;
12836;SDS011;6485;51.472;5.268;2022-08-19T07:09:11;41.63;;;21.43;;
12836;SDS011;6485;51.472;5.268;2022-08-19T07:11:48;43.47;;;21.97;;
12836;SDS011;6485;51.472;5.268;2022-08-19T07:14:22;48.80;;;20.97;;
12836;SDS011;6485;51.472;5.268;2022-08-19T07:16:53;41.50;;;19.87;;
12836;SDS011;6485;51.472;5.268;2022-08-19T07:19:25;42.13;;;20.57;;
12836;SDS011;6485;51.472;5.268;2022-08-19T07:21:55;42.23;;;20.83;;
12836;SDS011;6485;51.472;5.268;2022-08-19T07:24:28;42.57;;;20.93;;
12836;SDS011;6485;51.472;5.268;2022-08-19T07:27:01;41.90;;;21.50;;
12836;SDS011;6485;51.472;5.268;2022-08-19T07:29:40;41.10;;;21.27;;
12836;SDS011;6485;51.472;5.268;2022-08-19T07:32:09;42.70;;;21.27;;
12836;SDS011;6485;51.472;5.268;2022-08-19T07:34:40;38.63;;;21.20;;
12836;SDS011;6485;51.472;5.268;2022-08-19T07:37:08;40.53;;;21.47;;
12836;SDS011;6485;51.472;5.268;2022-08-19T07:39:37;37.83;;;20.87;;
12836;SDS011;6485;51.472;5.268;2022-08-19T07:42:07;41.93;;;21.20;;
12836;SDS011;6485;51.472;5.268;2022-08-19T07:44:38;42.23;;;22.43;;
12836;SDS011;6485;51.472;5.268;2022-08-19T07:47:15;43.03;;;23.07;;
12836;SDS011;6485;51.472;5.268;2022-08-19T07:50:07;48.67;;;27.60;;
12836;SDS011;6485;51.472;5.268;2022-08-19T07:52:39;44.53;;;25.00;;
12836;SDS011;6485;51.472;5.268;2022-08-19T07:55:15;47.43;;;25.67;;
12836;SDS011;6485;51.472;5.268;2022-08-19T07:58:05;47.30;;;24.27;;
12836;SDS011;6485;51.472;5.268;2022-08-19T08:00:34;45.47;;;24.10;;
12836;SDS011;6485;51.472;5.268;2022-08-19T08:03:04;47.90;;;24.50;;
12836;SDS011;6485;51.472;5.268;2022-08-19T08:05:36;45.53;;;23.20;;
12836;SDS011;6485;51.472;5.268;2022-08-19T08:08:22;48.43;;;22.43;;
12836;SDS011;6485;51.472;5.268;2022-08-19T08:11:10;42.43;;;23.20;;
12836;SDS011;6485;51.472;5.268;2022-08-19T08:13:41;43.47;;;22.03;;
12836;SDS011;6485;51.472;5.268;2022-08-19T08:16:09;45.90;;;22.57;;
12836;SDS011;6485;51.472;5.268;2022-08-19T08:18:39;42.53;;;21.87;;
12836;SDS011;6485;51.472;5.268;2022-08-19T08:21:19;36.07;;;21.13;;
12836;SDS011;6485;51.472;5.268;2022-08-19T08:23:48;45.87;;;22.87;;
12836;SDS011;6485;51.472;5.268;2022-08-19T08:26:21;41.63;;;22.60;;
12836;SDS011;6485;51.472;5.268;2022-08-19T08:28:51;43.67;;;21.97;;
12836;SDS011;6485;51.472;5.268;2022-08-19T08:31:19;42.73;;;22.23;;
12836;SDS011;6485;51.472;5.268;2022-08-19T08:33:48;42.50;;;22.93;;
12836;SDS011;6485;51.472;5.268;2022-08-19T08:36:16;41.93;;;22.60;;
12836;SDS011;6485;51.472;5.268;2022-08-19T08:38:46;41.50;;;22.73;;
12836;SDS011;6485;51.472;5.268;2022-08-19T08:41:18;38.87;;;22.37;;
12836;SDS011;6485;51.472;5.268;2022-08-19T08:43:54;43.10;;;22.53;;
12836;SDS011;6485;51.472;5.268;2022-08-19T08:46:25;43.87;;;23.03;;
12836;SDS011;6485;51.472;5.268;2022-08-19T08:49:00;41.70;;;22.07;;
12836;SDS011;6485;51.472;5.268;2022-08-19T08:51:36;45.07;;;23.07;;
12836;SDS011;6485;51.472;5.268;2022-08-19T08:54:14;41.17;;;22.47;;
12836;SDS011;6485;51.472;5.268;2022-08-19T08:56:45;40.90;;;21.53;;
12836;SDS011;6485;51.472;5.268;2022-08-19T08:59:19;40.63;;;21.70;;
12836;SDS011;6485;51.472;5.268;2022-08-19T09:01:51;43.93;;;23.60;;
12836;SDS011;6485;51.472;5.268;2022-08-19T09:04:19;50.87;;;24.27;;
12836;SDS011;6485;51.472;5.268;2022-08-19T09:06:50;49.43;;;24.17;;
12836;SDS011;6485;51.472;5.268;2022-08-19T09:09:25;44.90;;;22.30;;
12836;SDS011;6485;51.472;5.268;2022-08-19T09:12:01;43.07;;;23.43;;
12836;SDS011;6485;51.472;5.268;2022-08-19T09:14:39;45.00;;;22.97;;
12836;SDS011;6485;51.472;5.268;2022-08-19T09:17:16;51.70;;;23.87;;
12836;SDS011;6485;51.472;5.268;2022-08-19T09:19:49;43.70;;;23.33;;
12836;SDS011;6485;51.472;5.268;2022-08-19T09:22:19;65.20;;;39.73;;
12836;SDS011;6485;51.472;5.268;2022-08-19T09:24:54;45.70;;;24.43;;
12836;SDS011;6485;51.472;5.268;2022-08-19T09:27:24;44.67;;;23.70;;
12836;SDS011;6485;51.472;5.268;2022-08-19T09:30:10;41.47;;;23.43;;
12836;SDS011;6485;51.472;5.268;2022-08-19T09:32:43;52.50;;;35.53;;
12836;SDS011;6485;51.472;5.268;2022-08-19T09:35:19;40.70;;;23.23;;
12836;SDS011;6485;51.472;5.268;2022-08-19T09:37:53;39.67;;;22.50;;
12836;SDS011;6485;51.472;5.268;2022-08-19T09:40:32;43.10;;;23.37;;
12836;SDS011;6485;51.472;5.268;2022-08-19T09:43:05;37.60;;;21.77;;
12836;SDS011;6485;51.472;5.268;2022-08-19T09:45:39;40.10;;;21.37;;
12836;SDS011;6485;51.472;5.268;2022-08-19T09:48:18;41.13;;;22.47;;
12836;SDS011;6485;51.472;5.268;2022-08-19T09:50:51;39.57;;;21.50;;
12836;SDS011;6485;51.472;5.268;2022-08-19T09:53:22;36.90;;;21.77;;
12836;SDS011;6485;51.472;5.268;2022-08-19T09:55:59;42.57;;;21.37;;
12836;SDS011;6485;51.472;5.268;2022-08-19T09:58:35;38.73;;;21.80;;
12836;SDS011;6485;51.472;5.268;2022-08-19T10:01:07;39.83;;;22.03;;
12836;SDS011;6485;51.472;5.268;2022-08-19T10:03:39;41.50;;;20.97;;
12836;SDS011;6485;51.472;5.268;2022-08-19T10:06:15;41.50;;;20.67;;
12836;SDS011;6485;51.472;5.268;2022-08-19T10:09:07;35.03;;;19.93;;
12836;SDS011;6485;51.472;5.268;2022-08-19T10:11:41;44.47;;;20.50;;
12836;SDS011;6485;51.472;5.268;2022-08-19T10:14:20;38.63;;;20.50;;
12836;SDS011;6485;51.472;5.268;2022-08-19T10:16:58;34.70;;;19.93;;
12836;SDS011;6485;51.472;5.268;2022-08-19T10:19:44;41.00;;;21.47;;
12836;SDS011;6485;51.472;5.268;2022-08-19T10:22:21;37.03;;;19.97;;
12836;SDS011;6485;51.472;5.268;2022-08-19T10:24:52;37.83;;;20.70;;
12836;SDS011;6485;51.472;5.268;2022-08-19T10:27:28;37.10;;;20.40;;
12836;SDS011;6485;51.472;5.268;2022-08-19T10:30:02;39.67;;;20.00;;
12836;SDS011;6485;51.472;5.268;2022-08-19T10:32:35;36.67;;;20.33;;
12836;SDS011;6485;51.472;5.268;2022-08-19T10:35:12;42.37;;;22.27;;
12836;SDS011;6485;51.472;5.268;2022-08-19T10:37:49;40.93;;;22.30;;
12836;SDS011;6485;51.472;5.268;2022-08-19T10:43:16;42.57;;;24.13;;
12836;SDS011;6485;51.472;5.268;2022-08-19T10:45:48;44.70;;;22.63;;
12836;SDS011;6485;51.472;5.268;2022-08-19T10:48:24;38.83;;;23.00;;
12836;SDS011;6485;51.472;5.268;2022-08-19T10:51:04;40.50;;;21.63;;
12836;SDS011;6485;51.472;5.268;2022-08-19T10:53:53;38.27;;;21.50;;
12836;SDS011;6485;51.472;5.268;2022-08-19T10:56:25;40.13;;;21.40;;
12836;SDS011;6485;51.472;5.268;2022-08-19T10:59:14;40.77;;;22.00;;
12836;SDS011;6485;51.472;5.268;2022-08-19T11:01:52;38.03;;;21.37;;
12836;SDS011;6485;51.472;5.268;2022-08-19T11:04:28;39.43;;;21.30;;
12836;SDS011;6485;51.472;5.268;2022-08-19T11:07:03;40.97;;;21.30;;
12836;SDS011;6485;51.472;5.268;2022-08-19T11:09:36;41.50;;;22.30;;
12836;SDS011;6485;51.472;5.268;2022-08-19T11:12:09;41.63;;;21.60;;
12836;SDS011;6485;51.472;5.268;2022-08-19T11:14:43;38.87;;;21.37;;
12836;SDS011;6485;51.472;5.268;2022-08-19T11:17:17;37.87;;;20.73;;
12836;SDS011;6485;51.472;5.268;2022-08-19T11:19:46;37.47;;;20.90;;
12836;SDS011;6485;51.472;5.268;2022-08-19T11:22:15;35.07;;;19.57;;
12836;SDS011;6485;51.472;5.268;2022-08-19T11:24:45;37.50;;;20.60;;
12836;SDS011;6485;51.472;5.268;2022-08-19T11:27:14;38.07;;;20.53;;
12836;SDS011;6485;51.472;5.268;2022-08-19T11:29:45;34.83;;;20.30;;
12836;SDS011;6485;51.472;5.268;2022-08-19T11:32:14;34.53;;;20.23;;
12836;SDS011;6485;51.472;5.268;2022-08-19T11:34:43;36.20;;;20.60;;
12836;SDS011;6485;51.472;5.268;2022-08-19T11:37:12;35.37;;;20.27;;
12836;SDS011;6485;51.472;5.268;2022-08-19T11:39:42;33.23;;;19.43;;
12836;SDS011;6485;51.472;5.268;2022-08-19T11:42:19;34.03;;;18.73;;
12836;SDS011;6485;51.472;5.268;2022-08-19T11:45:08;38.67;;;19.33;;
12836;SDS011;6485;51.472;5.268;2022-08-19T11:47:37;30.73;;;17.60;;
12836;SDS011;6485;51.472;5.268;2022-08-19T11:50:07;28.90;;;17.77;;
12836;SDS011;6485;51.472;5.268;2022-08-19T11:52:36;29.30;;;17.60;;
12836;SDS011;6485;51.472;5.268;2022-08-19T11:55:06;24.27;;;15.17;;
12836;SDS011;6485;51.472;5.268;2022-08-19T11:57:35;28.63;;;16.00;;
12836;SDS011;6485;51.472;5.268;2022-08-19T12:00:05;28.20;;;16.53;;
12836;SDS011;6485;51.472;5.268;2022-08-19T12:02:38;25.77;;;16.50;;
12836;SDS011;6485;51.472;5.268;2022-08-19T12:05:06;26.07;;;16.47;;
12836;SDS011;6485;51.472;5.268;2022-08-19T12:07:38;26.40;;;16.83;;
12836;SDS011;6485;51.472;5.268;2022-08-19T12:10:09;32.20;;;17.27;;
12836;SDS011;6485;51.472;5.268;2022-08-19T12:12:44;27.90;;;16.40;;
12836;SDS011;6485;51.472;5.268;2022-08-19T12:15:34;26.57;;;16.03;;
12836;SDS011;6485;51.472;5.268;2022-08-19T12:18:04;25.60;;;14.33;;
12836;SDS011;6485;51.472;5.268;2022-08-19T12:20:49;25.90;;;16.17;;
12836;SDS011;6485;51.472;5.268;2022-08-19T12:23:21;27.10;;;16.60;;
12836;SDS011;6485;51.472;5.268;2022-08-19T12:25:50;28.27;;;15.47;;
12836;SDS011;6485;51.472;5.268;2022-08-19T12:28:19;29.23;;;15.53;;
12836;SDS011;6485;51.472;5.268;2022-08-19T12:30:55;25.60;;;15.23;;
12836;SDS011;6485;51.472;5.268;2022-08-19T12:33:25;27.07;;;14.77;;
12836;SDS011;6485;51.472;5.268;2022-08-19T12:35:55;24.27;;;13.90;;
12836;SDS011;6485;51.472;5.268;2022-08-19T12:38:32;25.77;;;13.90;;
12836;SDS011;6485;51.472;5.268;2022-08-19T12:41:08;23.10;;;12.20;;
12836;SDS011;6485;51.472;5.268;2022-08-19T12:43:50;19.57;;;11.67;;
12836;SDS011;6485;51.472;5.268;2022-08-19T12:46:20;19.70;;;11.37;;
12836;SDS011;6485;51.472;5.268;2022-08-19T12:48:51;17.53;;;10.80;;
12836;SDS011;6485;51.472;5.268;2022-08-19T12:51:21;18.23;;;10.47;;
12836;SDS011;6485;51.472;5.268;2022-08-19T12:53:53;14.97;;;9.90;;
12836;SDS011;6485;51.472;5.268;2022-08-19T12:56:29;16.03;;;9.33;;
12836;SDS011;6485;51.472;5.268;2022-08-19T12:59:01;15.80;;;9.93;;
12836;SDS011;6485;51.472;5.268;2022-08-19T13:01:40;15.57;;;9.73;;
12836;SDS011;6485;51.472;5.268;2022-08-19T13:04:14;15.97;;;9.70;;
12836;SDS011;6485;51.472;5.268;2022-08-19T13:06:43;16.60;;;9.63;;
12836;SDS011;6485;51.472;5.268;2022-08-19T13:09:13;13.70;;;8.70;;
12836;SDS011;6485;51.472;5.268;2022-08-19T13:11:42;15.43;;;9.70;;
12836;SDS011;6485;51.472;5.268;2022-08-19T13:14:11;15.47;;;10.33;;
12836;SDS011;6485;51.472;5.268;2022-08-19T13:16:49;14.73;;;9.50;;
12836;SDS011;6485;51.472;5.268;2022-08-19T13:19:19;15.67;;;9.87;;
12836;SDS011;6485;51.472;5.268;2022-08-19T13:57:00;18.63;;;10.87;;
12836;SDS011;6485;51.472;5.268;2022-08-19T13:59:31;16.23;;;10.67;;
12836;SDS011;6485;51.472;5.268;2022-08-19T14:02:04;18.43;;;10.93;;
12836;SDS011;6485;51.472;5.268;2022-08-19T14:04:35;15.77;;;10.00;;
12836;SDS011;6485;51.472;5.268;2022-08-19T14:07:05;14.67;;;10.50;;
12836;SDS011;6485;51.472;5.268;2022-08-19T14:09:35;15.50;;;10.57;;
12836;SDS011;6485;51.472;5.268;2022-08-19T14:12:07;13.80;;;10.10;;
12836;SDS011;6485;51.472;5.268;2022-08-19T14:14:37;16.80;;;10.43;;
12836;SDS011;6485;51.472;5.268;2022-08-19T14:17:09;14.00;;;9.80;;
12836;SDS011;6485;51.472;5.268;2022-08-19T14:19:40;15.27;;;9.90;;
12836;SDS011;6485;51.472;5.268;2022-08-19T14:22:13;15.53;;;8.07;;
12836;SDS011;6485;51.472;5.268;2022-08-19T14:24:48;17.90;;;9.20;;
12836;SDS011;6485;51.472;5.268;2022-08-19T14:27:20;13.27;;;9.13;;
12836;SDS011;6485;51.472;5.268;2022-08-19T14:29:52;12.93;;;9.27;;
12836;SDS011;6485;51.472;5.268;2022-08-19T14:32:48;13.37;;;9.10;;
12836;SDS011;6485;51.472;5.268;2022-08-19T14:35:20;13.23;;;8.50;;
12836;SDS011;6485;51.472;5.268;2022-08-19T14:37:53;11.93;;;8.30;;
12836;SDS011;6485;51.472;5.268;2022-08-19T14:40:26;12.97;;;7.87;;
12836;SDS011;6485;51.472;5.268;2022-08-19T14:42:59;13.30;;;8.63;;
12836;SDS011;6485;51.472;5.268;2022-08-19T14:45:31;12.37;;;8.13;;
12836;SDS011;6485;51.472;5.268;2022-08-19T14:48:07;12.47;;;8.00;;
12836;SDS011;6485;51.472;5.268;2022-08-19T14:50:45;13.20;;;8.70;;
12836;SDS011;6485;51.472;5.268;2022-08-19T14:53:17;13.87;;;9.33;;
12836;SDS011;6485;51.472;5.268;2022-08-19T14:55:48;14.93;;;9.50;;
12836;SDS011;6485;51.472;5.268;2022-08-19T14:58:21;11.20;;;8.50;;
12836;SDS011;6485;51.472;5.268;2022-08-19T15:00:57;11.97;;;8.20;;
12836;SDS011;6485;51.472;5.268;2022-08-19T15:03:29;11.27;;;8.20;;
12836;SDS011;6485;51.472;5.268;2022-08-19T15:10:03;11.53;;;7.77;;
12836;SDS011;6485;51.472;5.268;2022-08-19T15:12:33;13.13;;;8.13;;
12836;SDS011;6485;51.472;5.268;2022-08-19T15:15:06;14.83;;;8.67;;
12836;SDS011;6485;51.472;5.268;2022-08-19T15:17:39;11.50;;;7.93;;
12836;SDS011;6485;51.472;5.268;2022-08-19T15:20:18;10.83;;;8.07;;
12836;SDS011;6485;51.472;5.268;2022-08-19T15:22:50;9.83;;;7.80;;
12836;SDS011;6485;51.472;5.268;2022-08-19T15:25:19;12.83;;;8.17;;
12836;SDS011;6485;51.472;5.268;2022-08-19T15:27:49;10.90;;;7.33;;
12836;SDS011;6485;51.472;5.268;2022-08-19T15:30:29;10.13;;;7.37;;
12836;SDS011;6485;51.472;5.268;2022-08-19T15:33:00;9.97;;;7.70;;
12836;SDS011;6485;51.472;5.268;2022-08-19T15:35:33;10.80;;;7.60;;
12836;SDS011;6485;51.472;5.268;2022-08-19T15:38:15;9.73;;;6.57;;
12836;SDS011;6485;51.472;5.268;2022-08-19T15:40:46;9.73;;;6.90;;
12836;SDS011;6485;51.472;5.268;2022-08-19T15:43:18;8.20;;;6.30;;
12836;SDS011;6485;51.472;5.268;2022-08-19T15:45:50;9.63;;;6.60;;
12836;SDS011;6485;51.472;5.268;2022-08-19T15:48:18;9.20;;;6.60;;
12836;SDS011;6485;51.472;5.268;2022-08-19T15:50:52;9.40;;;6.43;;